createdAt,value
2024-01-10T00:00:58.125Z,-3.58
2024-01-10T00:03:24.699Z,-3.63
2024-01-10T00:05:51.432Z,-3.59
2024-01-10T00:08:18.125Z,-3.55
2024-01-10T00:10:44.714Z,-3.58
2024-01-10T00:13:11.271Z,-3.60
2024-01-10T00:15:37.687Z,-3.54
2024-01-10T00:18:04.282Z,-3.52
2024-01-10T00:20:30.909Z,-3.53
2024-01-10T00:22:58.428Z,-3.52
2024-01-10T00:25:25.127Z,-3.53
2024-01-10T00:27:51.852Z,-3.61
2024-01-10T00:30:18.452Z,-3.56
2024-01-10T00:32:46.628Z,-3.40
2024-01-10T00:35:13.232Z,-3.31
2024-01-10T00:37:39.826Z,-3.28
2024-01-10T00:40:07.168Z,-3.26
2024-01-10T00:42:33.670Z,-3.26
2024-01-10T00:45:00.199Z,-3.19
2024-01-10T00:47:27.129Z,-3.19
2024-01-10T00:49:53.767Z,-3.13
2024-01-10T00:52:20.352Z,-3.11
2024-01-10T00:54:47.293Z,-3.11
2024-01-10T00:57:13.774Z,-3.01
2024-01-10T00:59:40.262Z,-3.03
2024-01-10T01:02:07.048Z,-3.03
2024-01-10T01:04:33.700Z,-3.03
2024-01-10T01:07:00.405Z,-3.09
2024-01-10T01:09:27.086Z,-3.07
2024-01-10T01:11:53.543Z,-2.97
2024-01-10T01:14:20.059Z,-2.95
2024-01-10T01:16:46.584Z,-3.04
2024-01-10T01:19:13.394Z,-3.04
2024-01-10T01:21:39.816Z,-2.96
2024-01-10T01:24:06.511Z,-3.03
2024-01-10T01:26:32.971Z,-3.03
2024-01-10T01:28:59.510Z,-3.01
2024-01-10T01:31:26.000Z,-2.96
2024-01-10T01:33:52.455Z,-2.93
2024-01-10T01:36:19.318Z,-3.01
2024-01-10T01:38:45.753Z,-3.08
2024-01-10T01:41:12.306Z,-3.08
2024-01-10T01:43:38.999Z,-3.10
2024-01-10T01:46:05.790Z,-3.07
2024-01-10T01:48:32.771Z,-2.98
2024-01-10T01:51:03.727Z,-2.97
2024-01-10T01:53:30.413Z,-3.02
2024-01-10T01:55:57.698Z,-2.98
2024-01-10T01:58:24.965Z,-2.94
2024-01-10T02:00:52.531Z,-2.89
2024-01-10T02:03:19.699Z,-2.91
2024-01-10T02:05:47.469Z,-2.90
2024-01-10T02:08:14.096Z,-2.85
2024-01-10T02:10:40.761Z,-2.81
2024-01-10T02:13:09.690Z,-2.74
2024-01-10T02:15:37.252Z,-2.61
2024-01-10T02:18:03.935Z,-2.60
2024-01-10T02:20:30.534Z,-2.55
2024-01-10T02:22:57.087Z,-2.48
2024-01-10T02:25:23.783Z,-2.38
2024-01-10T02:27:50.345Z,-2.33
2024-01-10T02:30:16.874Z,-2.27
2024-01-10T02:32:43.397Z,-2.14
2024-01-10T02:35:09.993Z,-2.19
2024-01-10T02:37:36.602Z,-2.26
2024-01-10T02:40:03.306Z,-2.29
2024-01-10T02:42:31.301Z,-2.26
2024-01-10T02:44:57.792Z,-2.17
2024-01-10T02:47:24.414Z,-2.10
2024-01-10T02:49:50.939Z,-2.02
2024-01-10T02:52:17.618Z,-2.06
2024-01-10T02:54:44.140Z,-2.05
2024-01-10T02:57:10.551Z,-2.11
2024-01-10T02:59:37.082Z,-2.12
2024-01-10T03:02:03.769Z,-2.06
2024-01-10T03:04:30.441Z,-2.13
2024-01-10T03:06:57.089Z,-2.18
2024-01-10T03:09:24.454Z,-2.23
2024-01-10T03:11:50.856Z,-2.28
2024-01-10T03:14:17.405Z,-2.38
2024-01-10T03:16:43.958Z,-2.47
2024-01-10T03:19:10.584Z,-2.48
2024-01-10T03:21:37.219Z,-2.52
2024-01-10T03:24:04.260Z,-2.60
2024-01-10T03:26:31.666Z,-2.56
2024-01-10T03:28:58.508Z,-2.63
2024-01-10T03:31:26.539Z,-2.68
2024-01-10T03:33:53.248Z,-2.69
2024-01-10T03:36:19.819Z,-2.66
2024-01-10T03:38:46.526Z,-2.55
2024-01-10T03:41:17.726Z,-2.53
2024-01-10T03:43:45.217Z,-2.46
2024-01-10T03:46:12.083Z,-2.45
2024-01-10T03:48:39.757Z,-2.50
2024-01-10T03:51:06.238Z,-2.55
2024-01-10T03:53:32.977Z,-2.55
2024-01-10T03:55:59.733Z,-2.52
2024-01-10T03:58:27.559Z,-2.41
2024-01-10T04:00:54.059Z,-2.29
2024-01-10T04:03:20.596Z,-2.26
2024-01-10T04:05:47.141Z,-2.30
2024-01-10T04:08:15.706Z,-2.23
2024-01-10T04:10:43.513Z,-2.23
2024-01-10T04:13:10.253Z,-2.24
2024-01-10T04:15:36.775Z,-2.25
2024-01-10T04:18:03.984Z,-2.23
2024-01-10T04:20:30.627Z,-2.23
2024-01-10T04:22:57.200Z,-2.23
2024-01-10T04:25:23.697Z,-2.26
2024-01-10T04:27:51.323Z,-2.25
2024-01-10T04:30:17.838Z,-2.18
2024-01-10T04:32:44.563Z,-2.18
2024-01-10T04:35:11.339Z,-2.07
2024-01-10T04:37:38.106Z,-2.06
2024-01-10T04:40:07.996Z,-2.01
2024-01-10T04:42:35.272Z,-1.90
2024-01-10T04:45:01.774Z,-1.95
2024-01-10T04:47:28.256Z,-1.93
2024-01-10T04:49:54.892Z,-2.04
2024-01-10T04:52:21.745Z,-2.08
2024-01-10T04:54:48.235Z,-2.03
2024-01-10T04:57:14.700Z,-2.12
2024-01-10T04:59:41.273Z,-2.14
2024-01-10T05:02:08.058Z,-2.04
2024-01-10T05:04:34.567Z,-2.04
2024-01-10T05:07:01.038Z,-2.09
2024-01-10T05:09:27.756Z,-2.14
2024-01-10T05:11:54.384Z,-2.21
2024-01-10T05:14:20.923Z,-2.17
2024-01-10T05:16:49.218Z,-2.11
2024-01-10T05:19:16.020Z,-2.14
2024-01-10T05:21:42.975Z,-2.27
2024-01-10T05:24:09.511Z,-2.27
2024-01-10T05:26:36.701Z,-2.33
2024-01-10T05:29:03.285Z,-2.41
2024-01-10T05:31:29.725Z,-2.42
2024-01-10T05:33:56.506Z,-2.49
2024-01-10T05:36:23.968Z,-2.59
2024-01-10T05:38:52.594Z,-2.62
2024-01-10T05:41:19.131Z,-2.69
2024-01-10T05:43:45.792Z,-2.78
2024-01-10T05:46:12.319Z,-2.85
2024-01-10T05:48:38.865Z,-2.93
2024-01-10T05:51:05.626Z,-2.94
2024-01-10T05:53:32.165Z,-3.01
2024-01-10T05:55:58.796Z,-3.05
2024-01-10T05:58:25.326Z,-3.10
2024-01-10T06:00:51.849Z,-3.11
2024-01-10T06:03:18.960Z,-3.13
2024-01-10T06:05:45.498Z,-3.16
2024-01-10T06:08:12.062Z,-3.20
2024-01-10T06:10:38.911Z,-3.25
2024-01-10T06:13:05.754Z,-3.28
2024-01-10T06:15:32.247Z,-3.29
2024-01-10T06:17:59.469Z,-3.27
2024-01-10T06:20:26.449Z,-3.30
2024-01-10T06:22:53.014Z,-3.33
2024-01-10T06:25:19.616Z,-3.37
2024-01-10T06:27:46.075Z,-3.46
2024-01-10T06:30:12.874Z,-3.50
2024-01-10T06:32:39.476Z,-3.54
2024-01-10T06:35:06.378Z,-3.56
2024-01-10T06:37:34.503Z,-3.63
2024-01-10T06:40:02.489Z,-3.68
2024-01-10T06:42:28.963Z,-3.69
2024-01-10T06:44:55.664Z,-3.72
2024-01-10T06:47:22.615Z,-3.76
2024-01-10T06:49:49.363Z,-3.74
2024-01-10T06:52:15.921Z,-3.74
2024-01-10T06:54:42.378Z,-3.75
2024-01-10T06:57:08.811Z,-3.73
2024-01-10T06:59:35.349Z,-3.73
2024-01-10T07:02:03.000Z,-3.74
2024-01-10T07:04:29.565Z,-3.70
2024-01-10T07:06:56.040Z,-3.68
2024-01-10T07:09:22.624Z,-3.65
2024-01-10T07:11:49.904Z,-3.62
2024-01-10T07:14:17.170Z,-3.56
2024-01-10T07:16:46.713Z,-3.59
2024-01-10T07:19:16.688Z,-3.55
2024-01-10T07:21:43.681Z,-3.52
2024-01-10T07:24:11.172Z,-3.46
2024-01-10T07:26:38.938Z,-3.44
2024-01-10T07:29:09.273Z,-3.35
2024-01-10T07:31:36.515Z,-3.24
2024-01-10T07:34:06.186Z,-3.30
2024-01-10T07:36:34.811Z,-3.31
2024-01-10T07:39:04.159Z,-3.29
2024-01-10T07:41:31.253Z,-3.25
2024-01-10T07:43:58.407Z,-3.19
2024-01-10T07:46:24.972Z,-3.12
2024-01-10T07:48:51.407Z,-3.05
2024-01-10T07:51:17.953Z,-3.01
2024-01-10T07:53:44.414Z,-2.94
2024-01-10T07:56:11.276Z,-2.92
2024-01-10T07:58:37.780Z,-2.86
2024-01-10T08:01:04.310Z,-2.76
2024-01-10T08:03:30.821Z,-2.71
2024-01-10T08:05:57.368Z,-2.73
2024-01-10T08:08:23.938Z,-2.78
2024-01-10T08:10:50.510Z,-2.79
2024-01-10T08:13:17.154Z,-2.81
2024-01-10T08:15:43.973Z,-2.79
2024-01-10T08:18:10.560Z,-2.67
2024-01-10T08:20:37.086Z,-2.50
2024-01-10T08:23:03.678Z,-2.38
2024-01-10T08:25:30.688Z,-2.26
2024-01-10T08:27:58.621Z,-2.31
2024-01-10T08:30:25.362Z,-2.22
2024-01-10T08:32:51.882Z,-2.10
2024-01-10T08:35:18.439Z,-2.08
2024-01-10T08:37:45.540Z,-2.15
2024-01-10T08:40:15.553Z,-2.11
2024-01-10T08:42:43.189Z,-2.09
2024-01-10T08:45:12.204Z,-1.94
2024-01-10T08:47:38.807Z,-1.95
2024-01-10T08:50:06.501Z,-1.90
2024-01-10T08:52:33.306Z,-1.95
2024-01-10T08:54:59.851Z,-1.95
2024-01-10T08:57:28.190Z,-1.80
2024-01-10T08:59:54.956Z,-1.66
2024-01-10T09:02:21.785Z,-1.49
2024-01-10T09:04:48.702Z,-1.36
2024-01-10T09:07:15.507Z,-1.15
2024-01-10T09:09:43.531Z,-0.94
2024-01-10T09:12:10.192Z,-0.76
2024-01-10T09:14:36.772Z,-0.60
2024-01-10T09:17:04.456Z,-0.49
2024-01-10T09:19:31.789Z,-0.36
2024-01-10T09:21:58.709Z,-0.23
2024-01-10T09:24:29.760Z,-0.02
2024-01-10T09:26:57.207Z,0.02
2024-01-10T09:29:25.003Z,0.14
2024-01-10T09:31:51.754Z,0.20
2024-01-10T09:34:18.440Z,0.29
2024-01-10T09:36:45.084Z,0.15
2024-01-10T09:39:14.662Z,0.28
2024-01-10T09:41:52.490Z,0.50
2024-01-10T09:44:19.837Z,0.54
2024-01-10T09:46:53.828Z,0.57
2024-01-10T09:49:23.054Z,0.70
2024-01-10T09:51:50.510Z,0.78
2024-01-10T09:54:17.425Z,0.88
2024-01-10T09:56:44.381Z,1.22
2024-01-10T09:59:12.315Z,1.62
2024-01-10T10:01:42.313Z,1.93
2024-01-10T10:04:12.481Z,2.09
2024-01-10T10:06:39.291Z,2.27
2024-01-10T10:09:09.070Z,2.41
2024-01-10T10:11:35.848Z,2.43
2024-01-10T10:14:17.041Z,2.25
2024-01-10T10:16:43.601Z,2.01
2024-01-10T10:19:10.826Z,2.02
2024-01-10T10:21:37.604Z,2.17
2024-01-10T10:24:08.243Z,2.17
2024-01-10T10:26:35.904Z,2.07
2024-01-10T10:29:04.091Z,2.17
2024-01-10T10:31:32.223Z,2.28
2024-01-10T10:34:02.080Z,2.15
2024-01-10T10:36:30.766Z,2.28
2024-01-10T10:38:57.321Z,2.37
2024-01-10T10:41:26.847Z,2.44
2024-01-10T10:43:55.805Z,2.57
2024-01-10T10:46:25.353Z,2.85
2024-01-10T10:48:52.168Z,3.09
2024-01-10T10:51:37.836Z,3.26
2024-01-10T10:54:05.686Z,3.30
2024-01-10T10:56:36.314Z,2.95
2024-01-10T10:59:05.204Z,3.10
2024-01-10T11:01:32.664Z,3.03
2024-01-10T11:03:59.857Z,3.30
2024-01-10T11:06:28.172Z,3.41
2024-01-10T11:09:05.311Z,3.50
2024-01-10T11:11:42.168Z,3.77
2024-01-10T11:14:36.366Z,3.93
2024-01-10T11:17:21.096Z,3.83
2024-01-10T11:20:14.246Z,3.94
2024-01-10T11:23:30.336Z,3.99
2024-01-10T11:25:59.830Z,4.18
2024-01-10T11:28:28.780Z,4.47
2024-01-10T11:30:57.739Z,4.53
2024-01-10T11:33:26.502Z,4.61
2024-01-10T11:36:11.622Z,4.81
2024-01-10T11:38:55.912Z,4.96
2024-01-10T11:41:37.056Z,4.93
2024-01-10T11:44:18.449Z,5.11
2024-01-10T11:46:48.331Z,5.07
2024-01-10T11:49:17.773Z,4.93
2024-01-10T11:51:51.775Z,5.26
2024-01-10T11:54:41.821Z,5.08
2024-01-10T11:57:30.986Z,4.92
2024-01-10T12:00:01.256Z,4.74
2024-01-10T12:02:29.044Z,4.62
2024-01-10T12:04:57.046Z,4.61
2024-01-10T12:07:24.980Z,5.13
2024-01-10T12:09:51.695Z,5.31
2024-01-10T12:12:18.395Z,5.59
2024-01-10T12:14:45.450Z,5.31
2024-01-10T12:17:14.357Z,4.98
2024-01-10T12:19:42.284Z,4.79
2024-01-10T12:22:10.047Z,4.90
2024-01-10T12:24:50.375Z,5.26
2024-01-10T12:27:22.313Z,5.51
2024-01-10T12:29:54.344Z,5.60
2024-01-10T12:32:23.779Z,5.68
2024-01-10T12:34:58.945Z,5.54
2024-01-10T12:37:25.532Z,5.60
2024-01-10T12:39:52.019Z,5.82
2024-01-10T12:42:18.514Z,5.66
2024-01-10T12:44:45.436Z,5.76
2024-01-10T12:47:20.826Z,5.75
2024-01-10T12:49:47.764Z,5.80
2024-01-10T12:52:17.229Z,5.80
2024-01-10T12:54:45.409Z,5.90
2024-01-10T12:57:11.956Z,5.66
2024-01-10T12:59:38.442Z,5.68
2024-01-10T13:02:05.182Z,5.62
2024-01-10T13:04:32.088Z,5.69
2024-01-10T13:06:59.174Z,5.51
2024-01-10T13:09:26.046Z,5.47
2024-01-10T13:11:52.738Z,5.41
2024-01-10T13:14:19.675Z,5.21
2024-01-10T13:16:54.140Z,5.17
2024-01-10T13:19:26.046Z,5.25
2024-01-10T13:21:54.356Z,5.31
2024-01-10T13:24:20.852Z,5.48
2024-01-10T13:26:47.402Z,5.63
2024-01-10T13:29:15.171Z,5.60
2024-01-10T13:31:41.683Z,5.34
2024-01-10T13:34:08.154Z,5.25
2024-01-10T13:36:34.638Z,5.18
2024-01-10T13:39:01.118Z,5.20
2024-01-10T13:41:27.613Z,5.02
2024-01-10T13:43:54.700Z,5.04
2024-01-10T13:46:21.160Z,4.87
2024-01-10T13:48:47.604Z,4.96
2024-01-10T13:51:14.148Z,4.90
2024-01-10T13:53:40.585Z,4.71
2024-01-10T13:56:07.605Z,4.61
2024-01-10T13:58:34.718Z,4.46
2024-01-10T14:01:01.375Z,4.32
2024-01-10T14:03:29.180Z,4.45
2024-01-10T14:05:56.981Z,4.36
2024-01-10T14:08:23.636Z,4.33
2024-01-10T14:10:50.254Z,4.19
2024-01-10T14:13:16.681Z,3.94
2024-01-10T14:15:43.231Z,3.91
2024-01-10T14:18:09.756Z,3.83
2024-01-10T14:20:37.568Z,3.81
2024-01-10T14:23:05.053Z,3.77
2024-01-10T14:25:31.768Z,3.67
2024-01-10T14:27:59.932Z,3.63
2024-01-10T14:30:26.569Z,3.51
2024-01-10T14:32:53.188Z,3.46
2024-01-10T14:35:20.324Z,3.35
2024-01-10T14:37:46.886Z,3.40
2024-01-10T14:40:13.386Z,3.37
2024-01-10T14:42:39.990Z,3.26
2024-01-10T14:45:06.956Z,3.25
2024-01-10T14:47:33.747Z,3.21
2024-01-10T14:50:01.065Z,3.15
2024-01-10T14:52:28.058Z,3.17
2024-01-10T14:54:54.761Z,3.09
2024-01-10T14:57:22.103Z,3.02
2024-01-10T14:59:49.453Z,3.02
2024-01-10T15:02:17.646Z,2.94
2024-01-10T15:04:45.395Z,2.91
2024-01-10T15:07:12.111Z,2.86
2024-01-10T15:09:38.902Z,2.80
2024-01-10T15:12:09.491Z,2.70
2024-01-10T15:14:37.441Z,2.73
2024-01-10T15:17:07.022Z,2.71
2024-01-10T15:19:33.889Z,2.60
2024-01-10T15:22:00.625Z,2.54
2024-01-10T15:24:28.178Z,2.53
2024-01-10T15:26:55.094Z,2.51
2024-01-10T15:29:21.698Z,2.27
2024-01-10T15:31:48.246Z,2.17
2024-01-10T15:34:14.793Z,2.26
2024-01-10T15:36:44.420Z,2.16
2024-01-10T15:39:13.624Z,2.12
2024-01-10T15:41:40.593Z,2.17
2024-01-10T15:44:10.606Z,2.18
2024-01-10T15:46:37.789Z,2.17
2024-01-10T15:49:04.643Z,2.11
2024-01-10T15:51:31.150Z,2.08
2024-01-10T15:53:59.309Z,2.11
2024-01-10T15:56:25.893Z,2.01
2024-01-10T15:58:52.551Z,1.88
2024-01-10T16:01:19.832Z,1.76
2024-01-10T16:03:46.518Z,1.63
2024-01-10T16:06:13.182Z,1.56
2024-01-10T16:08:40.270Z,1.47
2024-01-10T16:11:06.896Z,1.37
2024-01-10T16:13:33.541Z,1.31
2024-01-10T16:16:00.164Z,1.33
2024-01-10T16:18:26.882Z,1.25
2024-01-10T16:20:53.648Z,1.19
2024-01-10T16:23:20.245Z,1.14
2024-01-10T16:25:47.010Z,1.10
2024-01-10T16:28:14.306Z,1.03
2024-01-10T16:30:40.803Z,1.00
2024-01-10T16:33:09.786Z,0.93
2024-01-10T16:35:37.074Z,0.86
2024-01-10T16:38:03.827Z,0.80
2024-01-10T16:40:30.334Z,0.75
2024-01-10T16:42:56.813Z,0.70
2024-01-10T16:45:23.520Z,0.66
2024-01-10T16:47:52.004Z,0.60
2024-01-10T16:50:18.899Z,0.59
2024-01-10T16:52:45.470Z,0.55
2024-01-10T16:55:11.951Z,0.56
2024-01-10T16:57:38.373Z,0.51
2024-01-10T17:00:06.301Z,0.49
2024-01-10T17:02:33.296Z,0.49
2024-01-10T17:05:02.088Z,0.45
2024-01-10T17:07:28.771Z,0.41
2024-01-10T17:09:55.233Z,0.39
2024-01-10T17:12:22.987Z,0.36
2024-01-10T17:14:49.379Z,0.34
2024-01-10T17:17:15.924Z,0.28
2024-01-10T17:19:42.397Z,0.26
2024-01-10T17:22:08.922Z,0.19
2024-01-10T17:24:35.371Z,0.16
2024-01-10T17:27:01.797Z,0.13
2024-01-10T17:29:28.315Z,0.12
2024-01-10T17:31:54.896Z,0.14
2024-01-10T17:34:21.366Z,0.12
2024-01-10T17:36:47.910Z,0.11
2024-01-10T17:39:15.215Z,0.08
2024-01-10T17:41:42.729Z,0.02
2024-01-10T17:44:09.755Z,-0.04
2024-01-10T17:46:36.324Z,-0.09
2024-01-10T17:49:03.114Z,-0.11
2024-01-10T17:51:29.675Z,-0.12
2024-01-10T17:53:57.031Z,-0.12
2024-01-10T17:56:23.741Z,-0.16
2024-01-10T17:58:50.720Z,-0.17
2024-01-10T18:01:18.861Z,-0.20
2024-01-10T18:03:48.644Z,-0.25
2024-01-10T18:06:17.321Z,-0.27
2024-01-10T18:08:43.926Z,-0.32
2024-01-10T18:11:10.386Z,-0.32
2024-01-10T18:13:37.051Z,-0.35
2024-01-10T18:16:04.154Z,-0.27
2024-01-10T18:18:34.330Z,-0.21
2024-01-10T18:21:02.829Z,-0.18
2024-01-10T18:23:30.135Z,-0.22
2024-01-10T18:25:57.093Z,-0.27
2024-01-10T18:28:23.835Z,-0.34
2024-01-10T18:30:51.967Z,-0.37
2024-01-10T18:33:20.139Z,-0.40
2024-01-10T18:35:46.710Z,-0.42
2024-01-10T18:38:17.236Z,-0.47
2024-01-10T18:40:43.774Z,-0.51
2024-01-10T18:43:11.717Z,-0.55
2024-01-10T18:45:38.392Z,-0.63
2024-01-10T18:48:05.383Z,-0.67
2024-01-10T18:50:32.075Z,-0.73
2024-01-10T18:52:59.503Z,-0.78
2024-01-10T18:55:26.034Z,-0.79
2024-01-10T18:57:54.044Z,-0.84
2024-01-10T19:00:24.881Z,-0.82
2024-01-10T19:02:52.040Z,-0.86
2024-01-10T19:05:18.691Z,-0.89
2024-01-10T19:07:46.086Z,-0.94
2024-01-10T19:10:12.966Z,-0.98
2024-01-10T19:12:39.463Z,-0.99
2024-01-10T19:15:06.404Z,-1.04
2024-01-10T19:17:33.063Z,-1.07
2024-01-10T19:19:59.748Z,-1.08
2024-01-10T19:22:27.299Z,-1.11
2024-01-10T19:24:54.463Z,-1.15
2024-01-10T19:27:20.888Z,-1.19
2024-01-10T19:29:47.582Z,-1.19
2024-01-10T19:32:14.260Z,-1.19
2024-01-10T19:34:40.811Z,-1.19
2024-01-10T19:37:08.430Z,-1.21
2024-01-10T19:39:35.341Z,-1.20
2024-01-10T19:42:02.233Z,-1.19
2024-01-10T19:44:28.848Z,-1.21
2024-01-10T19:46:55.396Z,-1.19
2024-01-10T19:49:22.150Z,-1.17
2024-01-10T19:51:48.717Z,-1.16
2024-01-10T19:54:15.978Z,-1.14
2024-01-10T19:56:42.498Z,-1.15
2024-01-10T19:59:09.019Z,-1.15
2024-01-10T20:01:35.692Z,-1.19
2024-01-10T20:04:02.322Z,-1.22
2024-01-10T20:06:28.947Z,-1.22
2024-01-10T20:08:55.727Z,-1.24
2024-01-10T20:11:22.506Z,-1.29
2024-01-10T20:13:50.458Z,-1.29
2024-01-10T20:16:17.154Z,-1.30
2024-01-10T20:18:43.731Z,-1.25
2024-01-10T20:21:10.282Z,-1.23
2024-01-10T20:23:36.880Z,-1.23
2024-01-10T20:26:03.413Z,-1.30
2024-01-10T20:28:29.897Z,-1.37
2024-01-10T20:30:56.466Z,-1.34
2024-01-10T20:33:23.306Z,-1.36
2024-01-10T20:35:50.153Z,-1.40
2024-01-10T20:38:16.826Z,-1.40
2024-01-10T20:40:44.695Z,-1.38
2024-01-10T20:43:11.180Z,-1.41
2024-01-10T20:45:37.719Z,-1.45
2024-01-10T20:48:04.588Z,-1.47
2024-01-10T20:50:31.153Z,-1.51
2024-01-10T20:52:58.354Z,-1.50
2024-01-10T20:55:25.209Z,-1.52
2024-01-10T20:57:54.491Z,-1.57
2024-01-10T21:00:23.769Z,-1.61
2024-01-10T21:02:51.115Z,-1.65
2024-01-10T21:05:18.458Z,-1.74
2024-01-10T21:07:45.014Z,-1.80
2024-01-10T21:10:11.571Z,-1.86
2024-01-10T21:12:38.064Z,-1.84
2024-01-10T21:15:04.959Z,-1.80
2024-01-10T21:17:31.497Z,-1.80
2024-01-10T21:19:58.014Z,-1.83
2024-01-10T21:22:24.473Z,-1.79
2024-01-10T21:24:51.954Z,-1.77
2024-01-10T21:27:18.419Z,-1.82
2024-01-10T21:29:44.971Z,-1.81
2024-01-10T21:32:11.551Z,-1.87
2024-01-10T21:34:38.193Z,-1.93
2024-01-10T21:37:04.894Z,-1.96
2024-01-10T21:39:31.422Z,-1.91
2024-01-10T21:41:58.112Z,-1.92
2024-01-10T21:44:24.646Z,-1.94
2024-01-10T21:46:51.189Z,-1.91
2024-01-10T21:49:18.007Z,-2.03
2024-01-10T21:51:44.472Z,-2.04
2024-01-10T21:54:10.917Z,-2.12
2024-01-10T21:56:37.762Z,-2.18
2024-01-10T21:59:04.681Z,-2.24
2024-01-10T22:01:31.786Z,-2.30
2024-01-10T22:03:58.598Z,-2.35
2024-01-10T22:06:25.841Z,-2.41
2024-01-10T22:08:52.391Z,-2.51
2024-01-10T22:11:19.943Z,-2.58
2024-01-10T22:13:46.977Z,-2.55
2024-01-10T22:16:13.531Z,-2.51
2024-01-10T22:18:40.214Z,-2.55
2024-01-10T22:21:07.984Z,-2.62
2024-01-10T22:23:34.958Z,-2.60
2024-01-10T22:26:01.698Z,-2.58
2024-01-10T22:28:28.254Z,-2.66
2024-01-10T22:30:54.877Z,-2.68
2024-01-10T22:33:21.461Z,-2.73
2024-01-10T22:35:47.990Z,-2.75
2024-01-10T22:38:14.522Z,-2.76
2024-01-10T22:40:40.979Z,-2.80
2024-01-10T22:43:07.719Z,-2.83
2024-01-10T22:45:34.510Z,-2.89
2024-01-10T22:48:01.041Z,-2.98
2024-01-10T22:50:27.544Z,-2.96
2024-01-10T22:52:54.042Z,-2.95
2024-01-10T22:55:20.553Z,-2.94
2024-01-10T22:57:48.428Z,-2.95
2024-01-10T23:00:15.836Z,-2.93
2024-01-10T23:02:42.459Z,-2.97
2024-01-10T23:05:10.085Z,-2.99
2024-01-10T23:07:37.667Z,-2.99
2024-01-10T23:10:04.440Z,-3.02
2024-01-10T23:12:30.880Z,-2.99
2024-01-10T23:14:57.403Z,-3.03
2024-01-10T23:17:23.899Z,-3.07
2024-01-10T23:19:50.356Z,-3.05
2024-01-10T23:22:16.808Z,-3.04
2024-01-10T23:24:43.240Z,-3.07
2024-01-10T23:27:09.721Z,-3.14
2024-01-10T23:29:36.144Z,-3.17
2024-01-10T23:32:02.631Z,-3.16
2024-01-10T23:34:29.211Z,-3.17
2024-01-10T23:36:55.645Z,-3.17
2024-01-10T23:39:22.380Z,-3.22
2024-01-10T23:41:49.258Z,-3.20
2024-01-10T23:44:16.318Z,-3.20
2024-01-10T23:46:42.944Z,-3.20
2024-01-10T23:49:09.566Z,-3.24
2024-01-10T23:51:36.124Z,-3.26
2024-01-10T23:54:02.698Z,-3.26
2024-01-10T23:56:29.288Z,-3.34
2024-01-10T23:58:55.801Z,-3.37
